sensor_id;sensor_type;location;lat;lon;timestamp;P1;durP1;ratioP1;P2;durP2;ratioP2
44662;SDS011;30381;52.754;18.258;2023-09-30T07:09:07;13.30;;;3.10;;
44662;SDS011;30381;52.754;18.258;2023-09-30T07:54:36;17.20;;;3.10;;
44662;SDS011;30381;52.754;18.258;2023-09-30T08:41:07;12.90;;;3.00;;
44662;SDS011;30381;52.754;18.258;2023-09-30T08:43:44;11.60;;;3.10;;
44662;SDS011;30381;52.754;18.258;2023-09-30T08:46:53;12.80;;;3.70;;
44662;SDS011;30381;52.754;18.258;2023-09-30T08:49:21;12.60;;;2.70;;
44662;SDS011;30381;52.754;18.258;2023-09-30T08:52:19;11.80;;;3.90;;
44662;SDS011;30381;52.754;18.258;2023-09-30T08:54:46;14.60;;;3.10;;
44662;SDS011;30381;52.754;18.258;2023-09-30T08:57:12;12.10;;;3.20;;
44662;SDS011;30381;52.754;18.258;2023-09-30T08:59:42;15.00;;;3.10;;
44662;SDS011;30381;52.754;18.258;2023-09-30T09:02:19;8.30;;;2.40;;
44662;SDS011;30381;52.754;18.258;2023-09-30T09:07:34;14.10;;;3.00;;
44662;SDS011;30381;52.754;18.258;2023-09-30T09:10:14;12.40;;;2.80;;
44662;SDS011;30381;52.754;18.258;2023-09-30T09:13:05;12.80;;;3.40;;
44662;SDS011;30381;52.754;18.258;2023-09-30T09:15:31;11.00;;;3.60;;
44662;SDS011;30381;52.754;18.258;2023-09-30T09:18:04;12.50;;;3.10;;
44662;SDS011;30381;52.754;18.258;2023-09-30T09:20:53;12.40;;;2.80;;
44662;SDS011;30381;52.754;18.258;2023-09-30T10:02:05;22.70;;;7.50;;
44662;SDS011;30381;52.754;18.258;2023-09-30T10:14:37;14.50;;;4.50;;
44662;SDS011;30381;52.754;18.258;2023-09-30T10:23:43;12.80;;;3.20;;
44662;SDS011;30381;52.754;18.258;2023-09-30T10:37:37;11.90;;;3.00;;
44662;SDS011;30381;52.754;18.258;2023-09-30T10:40:58;14.60;;;3.00;;
44662;SDS011;30381;52.754;18.258;2023-09-30T10:44:34;13.30;;;3.70;;
44662;SDS011;30381;52.754;18.258;2023-09-30T10:47:39;14.70;;;3.10;;
44662;SDS011;30381;52.754;18.258;2023-09-30T13:26:13;15.70;;;3.40;;
44662;SDS011;30381;52.754;18.258;2023-09-30T13:29:52;21.60;;;5.00;;
44662;SDS011;30381;52.754;18.258;2023-09-30T13:32:42;17.00;;;3.60;;
44662;SDS011;30381;52.754;18.258;2023-09-30T13:35:48;15.10;;;3.80;;
44662;SDS011;30381;52.754;18.258;2023-09-30T13:41:53;21.60;;;6.80;;
44662;SDS011;30381;52.754;18.258;2023-09-30T13:45:21;11.80;;;3.30;;
44662;SDS011;30381;52.754;18.258;2023-09-30T13:49:28;11.20;;;3.50;;
44662;SDS011;30381;52.754;18.258;2023-09-30T14:11:14;12.80;;;3.10;;
44662;SDS011;30381;52.754;18.258;2023-09-30T14:14:36;9.30;;;2.90;;
44662;SDS011;30381;52.754;18.258;2023-09-30T14:24:05;9.90;;;3.10;;
44662;SDS011;30381;52.754;18.258;2023-09-30T14:27:12;13.50;;;4.00;;
44662;SDS011;30381;52.754;18.258;2023-09-30T14:30:35;9.80;;;2.60;;
44662;SDS011;30381;52.754;18.258;2023-09-30T15:04:14;11.40;;;3.60;;
44662;SDS011;30381;52.754;18.258;2023-09-30T15:26:40;9.70;;;2.70;;
44662;SDS011;30381;52.754;18.258;2023-09-30T18:36:57;18.00;;;3.80;;
44662;SDS011;30381;52.754;18.258;2023-09-30T18:39:44;13.90;;;3.30;;
44662;SDS011;30381;52.754;18.258;2023-09-30T19:33:51;15.50;;;3.70;;
44662;SDS011;30381;52.754;18.258;2023-09-30T19:37:32;11.70;;;3.10;;
44662;SDS011;30381;52.754;18.258;2023-09-30T19:40:59;13.90;;;4.00;;
44662;SDS011;30381;52.754;18.258;2023-09-30T19:44:35;13.40;;;3.00;;
44662;SDS011;30381;52.754;18.258;2023-09-30T19:47:40;11.50;;;2.70;;
44662;SDS011;30381;52.754;18.258;2023-09-30T19:51:32;19.10;;;4.60;;
44662;SDS011;30381;52.754;18.258;2023-09-30T19:57:11;15.20;;;3.50;;
44662;SDS011;30381;52.754;18.258;2023-09-30T20:00:01;16.30;;;3.30;;
44662;SDS011;30381;52.754;18.258;2023-09-30T20:05:37;14.50;;;3.60;;
44662;SDS011;30381;52.754;18.258;2023-09-30T20:08:36;13.80;;;3.40;;
44662;SDS011;30381;52.754;18.258;2023-09-30T20:11:56;15.10;;;3.80;;
44662;SDS011;30381;52.754;18.258;2023-09-30T20:14:51;15.70;;;3.90;;
44662;SDS011;30381;52.754;18.258;2023-09-30T20:17:58;13.30;;;3.30;;
44662;SDS011;30381;52.754;18.258;2023-09-30T20:20:36;16.20;;;3.40;;
44662;SDS011;30381;52.754;18.258;2023-09-30T20:23:37;14.10;;;2.90;;
44662;SDS011;30381;52.754;18.258;2023-09-30T20:26:28;13.20;;;3.70;;
44662;SDS011;30381;52.754;18.258;2023-09-30T20:29:17;12.90;;;3.90;;
44662;SDS011;30381;52.754;18.258;2023-09-30T20:32:04;10.40;;;2.90;;
44662;SDS011;30381;52.754;18.258;2023-09-30T20:34:36;15.60;;;3.80;;
44662;SDS011;30381;52.754;18.258;2023-09-30T20:37:32;13.00;;;3.80;;
44662;SDS011;30381;52.754;18.258;2023-09-30T20:40:19;17.20;;;3.50;;
44662;SDS011;30381;52.754;18.258;2023-09-30T20:43:00;18.40;;;4.30;;
44662;SDS011;30381;52.754;18.258;2023-09-30T20:45:34;18.90;;;3.40;;
44662;SDS011;30381;52.754;18.258;2023-09-30T20:48:37;12.00;;;2.90;;
44662;SDS011;30381;52.754;18.258;2023-09-30T20:51:40;16.00;;;4.30;;
44662;SDS011;30381;52.754;18.258;2023-09-30T20:54:54;15.10;;;3.80;;
44662;SDS011;30381;52.754;18.258;2023-09-30T20:57:29;15.90;;;3.90;;
44662;SDS011;30381;52.754;18.258;2023-09-30T21:00:17;14.50;;;3.60;;
44662;SDS011;30381;52.754;18.258;2023-09-30T21:02:58;15.70;;;4.00;;
44662;SDS011;30381;52.754;18.258;2023-09-30T21:05:39;16.30;;;3.60;;
44662;SDS011;30381;52.754;18.258;2023-09-30T21:08:12;14.50;;;3.40;;
44662;SDS011;30381;52.754;18.258;2023-09-30T21:11:11;15.00;;;3.80;;
44662;SDS011;30381;52.754;18.258;2023-09-30T21:13:57;21.50;;;4.00;;
44662;SDS011;30381;52.754;18.258;2023-09-30T21:16:53;14.90;;;3.80;;
44662;SDS011;30381;52.754;18.258;2023-09-30T21:22:42;16.70;;;4.00;;
44662;SDS011;30381;52.754;18.258;2023-09-30T21:25:25;18.20;;;3.90;;
44662;SDS011;30381;52.754;18.258;2023-09-30T21:28:18;19.00;;;3.80;;
44662;SDS011;30381;52.754;18.258;2023-09-30T21:30:53;17.40;;;3.60;;
44662;SDS011;30381;52.754;18.258;2023-09-30T21:33:37;16.80;;;4.00;;
44662;SDS011;30381;52.754;18.258;2023-09-30T21:36:31;14.90;;;3.90;;
44662;SDS011;30381;52.754;18.258;2023-09-30T21:42:54;17.70;;;5.00;;
44662;SDS011;30381;52.754;18.258;2023-09-30T21:45:56;20.40;;;5.60;;
44662;SDS011;30381;52.754;18.258;2023-09-30T21:48:38;19.70;;;4.90;;
44662;SDS011;30381;52.754;18.258;2023-09-30T21:51:27;23.00;;;6.20;;
44662;SDS011;30381;52.754;18.258;2023-09-30T21:54:31;21.80;;;6.60;;
44662;SDS011;30381;52.754;18.258;2023-09-30T21:57:13;18.90;;;5.70;;
44662;SDS011;30381;52.754;18.258;2023-09-30T21:59:50;14.00;;;4.60;;
44662;SDS011;30381;52.754;18.258;2023-09-30T22:02:42;14.50;;;4.70;;
44662;SDS011;30381;52.754;18.258;2023-09-30T22:05:54;17.60;;;5.30;;
44662;SDS011;30381;52.754;18.258;2023-09-30T22:08:50;23.70;;;6.30;;
44662;SDS011;30381;52.754;18.258;2023-09-30T22:12:14;17.20;;;5.70;;
44662;SDS011;30381;52.754;18.258;2023-09-30T22:15:12;18.90;;;6.10;;
44662;SDS011;30381;52.754;18.258;2023-09-30T22:18:25;15.90;;;5.00;;
44662;SDS011;30381;52.754;18.258;2023-09-30T22:21:25;21.50;;;5.20;;
44662;SDS011;30381;52.754;18.258;2023-09-30T22:24:05;20.60;;;5.10;;
44662;SDS011;30381;52.754;18.258;2023-09-30T22:26:37;14.20;;;4.10;;
44662;SDS011;30381;52.754;18.258;2023-09-30T22:29:15;14.70;;;4.30;;
44662;SDS011;30381;52.754;18.258;2023-09-30T22:32:16;16.50;;;5.30;;
44662;SDS011;30381;52.754;18.258;2023-09-30T22:35:36;19.90;;;5.20;;
44662;SDS011;30381;52.754;18.258;2023-09-30T22:38:34;15.40;;;5.70;;
44662;SDS011;30381;52.754;18.258;2023-09-30T22:41:08;20.40;;;6.20;;
44662;SDS011;30381;52.754;18.258;2023-09-30T22:43:54;17.90;;;6.10;;
44662;SDS011;30381;52.754;18.258;2023-09-30T22:46:22;20.10;;;5.60;;
44662;SDS011;30381;52.754;18.258;2023-09-30T22:48:57;22.80;;;6.00;;
44662;SDS011;30381;52.754;18.258;2023-09-30T22:51:25;21.10;;;5.60;;
44662;SDS011;30381;52.754;18.258;2023-09-30T22:53:53;17.30;;;6.50;;
44662;SDS011;30381;52.754;18.258;2023-09-30T22:56:19;21.50;;;6.30;;
44662;SDS011;30381;52.754;18.258;2023-09-30T22:58:48;19.60;;;5.90;;
44662;SDS011;30381;52.754;18.258;2023-09-30T23:01:21;20.70;;;6.60;;
44662;SDS011;30381;52.754;18.258;2023-09-30T23:03:48;25.60;;;7.40;;
44662;SDS011;30381;52.754;18.258;2023-09-30T23:06:18;22.00;;;7.20;;
44662;SDS011;30381;52.754;18.258;2023-09-30T23:08:49;18.20;;;5.50;;
44662;SDS011;30381;52.754;18.258;2023-09-30T23:11:16;18.10;;;5.50;;
44662;SDS011;30381;52.754;18.258;2023-09-30T23:13:46;20.90;;;6.00;;
44662;SDS011;30381;52.754;18.258;2023-09-30T23:16:17;18.60;;;5.60;;
44662;SDS011;30381;52.754;18.258;2023-09-30T23:18:48;19.90;;;5.70;;
44662;SDS011;30381;52.754;18.258;2023-09-30T23:21:18;19.50;;;5.90;;
44662;SDS011;30381;52.754;18.258;2023-09-30T23:23:45;17.50;;;6.20;;
44662;SDS011;30381;52.754;18.258;2023-09-30T23:26:14;20.40;;;6.90;;
44662;SDS011;30381;52.754;18.258;2023-09-30T23:28:41;22.00;;;6.60;;
44662;SDS011;30381;52.754;18.258;2023-09-30T23:31:07;20.50;;;5.10;;
44662;SDS011;30381;52.754;18.258;2023-09-30T23:33:34;18.70;;;5.30;;
44662;SDS011;30381;52.754;18.258;2023-09-30T23:36:02;20.00;;;4.60;;
44662;SDS011;30381;52.754;18.258;2023-09-30T23:38:31;16.70;;;4.90;;
44662;SDS011;30381;52.754;18.258;2023-09-30T23:41:01;15.50;;;4.50;;
44662;SDS011;30381;52.754;18.258;2023-09-30T23:43:29;16.00;;;4.00;;
44662;SDS011;30381;52.754;18.258;2023-09-30T23:45:59;18.40;;;4.10;;
44662;SDS011;30381;52.754;18.258;2023-09-30T23:48:26;21.50;;;4.00;;
44662;SDS011;30381;52.754;18.258;2023-09-30T23:50:55;22.70;;;4.40;;
44662;SDS011;30381;52.754;18.258;2023-09-30T23:53:22;18.40;;;4.60;;
44662;SDS011;30381;52.754;18.258;2023-09-30T23:55:49;20.60;;;5.30;;
44662;SDS011;30381;52.754;18.258;2023-09-30T23:58:18;16.80;;;5.60;;
